YYR weather

Goose Bay Airport
Goose Bay, Newfoundland and Labrador, Canada

Public forecast

Using degrees Celsius for public forecast. Weather courtesy of forecast.io.

Current aviation weather report (METAR) for Goose Bay Airport

Retrieved 2020/06/01 18:00 UTC (17 minutes ago):

CYYR 011800Z 07005KT 3SM -DZRA BR FEW003 BKN005 OVC009 06/06 A2993 RMK SF2SF4SF2 SLP137

Aviation forecast (TAF) for Goose Bay Airport

Retrieved 2020/06/01 18:33 UTC (0 seconds ago):

TAF TAF CYYR 011730Z 0118/0218 08005KT 3SM -RA -DZ BR BKN004 OVC010 TEMPO 0118/0201 6SM BR SCT004 OVC010 FM020100 36008KT P6SM -RA BKN010 OVC025 TEMPO 0201/0218 3SM -RA -DZ BR OVC006 BECMG 0206/0208 02010KT RMK NXT FCST BY 020000Z